Time;durP1;ratioP1;P1;durP2;ratioP2;P2;SDS_P1;SDS_P2;PMS_P1;PMS_P2;Temp;Humidity;BMP_temperature;BMP_pressure;BME280_temperature;BME280_humidity;BME280_pressure;Samples;Min_cycle;Max_cycle;Signal;HPM_P1;HPM_P2
2022/10/04 00:02:30;;;;;;;4.15;1.80;;;;;;;;;;5009524;28;20561;-73
2022/10/04 00:05:02;;;;;;;4.90;1.55;;;;;;;;;;5007957;28;20466;-70
2022/10/04 00:07:31;;;;;;;5.03;1.50;;;;;;;;;;5010843;28;20431;-71
2022/10/04 00:09:59;;;;;;;2.45;1.20;;;;;;;;;;5011279;28;20484;-71
2022/10/04 00:12:31;;;;;;;5.70;2.08;;;;;;;;;;5007555;28;20482;-72
2022/10/04 00:15:03;;;;;;;3.38;1.30;;;;;;;;;;5009207;28;20347;-70
2022/10/04 00:17:30;;;;;;;9.73;2.30;;;;;;;;;;5007520;28;20024;-71
2022/10/04 00:19:56;;;;;;;3.83;1.55;;;;;;;;;;5007622;28;20335;-71
2022/10/04 00:22:22;;;;;;;4.78;2.08;;;;;;;;;;5008135;28;20343;-71
2022/10/04 00:25:09;;;;;;;4.03;1.85;;;;;;;;;;5010450;28;20358;-71
2022/10/04 00:27:36;;;;;;;5.10;2.22;;;;;;;;;;5008883;28;20493;-71
2022/10/04 00:30:01;;;;;;;8.70;2.10;;;;;;;;;;5008848;28;20029;-71
2022/10/04 00:32:31;;;;;;;3.00;1.25;;;;;;;;;;5009158;28;20431;-71
2022/10/04 00:34:58;;;;;;;4.43;1.20;;;;;;;;;;5007214;28;20355;-71
2022/10/04 00:37:24;;;;;;;5.13;1.60;;;;;;;;;;5007351;28;20337;-72
2022/10/04 00:40:12;;;;;;;5.20;1.50;;;;;;;;;;5007365;28;20024;-71
2022/10/04 00:42:45;;;;;;;4.47;1.73;;;;;;;;;;4990491;28;20024;-71
2022/10/04 00:45:40;;;;;;;5.97;1.70;;;;;;;;;;5007196;28;20459;-71
2022/10/04 00:48:33;;;;;;;6.40;2.28;;;;;;;;;;4982383;28;20056;-70
2022/10/04 00:51:04;;;;;;;4.55;1.40;;;;;;;;;;5006242;28;20347;-71
2022/10/04 00:53:57;;;;;;;7.30;1.45;;;;;;;;;;5008552;28;20431;-70
2022/10/04 00:56:29;;;;;;;3.90;1.40;;;;;;;;;;5008631;28;20455;-71
2022/10/04 00:58:56;;;;;;;4.65;1.55;;;;;;;;;;5009836;28;20462;-71
2022/10/04 01:01:23;;;;;;;4.70;1.58;;;;;;;;;;5007094;28;20455;-71
2022/10/04 01:03:51;;;;;;;2.72;1.20;;;;;;;;;;4997767;28;20103;-71
2022/10/04 01:06:17;;;;;;;3.55;1.73;;;;;;;;;;5007182;28;20032;-71
2022/10/04 01:09:05;;;;;;;5.90;1.70;;;;;;;;;;5007116;28;20403;-70
2022/10/04 01:11:36;;;;;;;5.22;1.80;;;;;;;;;;5006727;28;20395;-71
2022/10/04 01:14:08;;;;;;;5.43;1.30;;;;;;;;;;5023946;28;20436;-71
2022/10/04 01:16:35;;;;;;;7.43;1.88;;;;;;;;;;4993287;28;20328;-72
2022/10/04 01:19:25;;;;;;;3.83;1.80;;;;;;;;;;5010035;28;20086;-70
2022/10/04 01:22:10;;;;;;;3.30;1.60;;;;;;;;;;5029358;28;20458;-70
2022/10/04 01:24:40;;;;;;;5.68;1.80;;;;;;;;;;4993145;28;20431;-71
2022/10/04 01:27:33;;;;;;;9.10;1.65;;;;;;;;;;5009799;28;20441;-71
2022/10/04 01:29:59;;;;;;;3.08;1.42;;;;;;;;;;5010299;28;20350;-71
2022/10/04 01:32:24;;;;;;;2.85;1.38;;;;;;;;;;5009715;28;20052;-71
2022/10/04 01:34:50;;;;;;;3.88;1.35;;;;;;;;;;5027836;28;20123;-70
2022/10/04 01:37:15;;;;;;;3.03;1.85;;;;;;;;;;5028011;28;20423;-71
2022/10/04 01:39:40;;;;;;;7.03;1.60;;;;;;;;;;5027818;28;20363;-71
2022/10/04 01:42:15;;;;;;;1.95;1.10;;;;;;;;;;5027599;28;20212;-71
2022/10/04 01:45:03;;;;;;;2.92;1.40;;;;;;;;;;5009618;28;20464;-71
2022/10/04 01:47:43;;;;;;;3.88;1.92;;;;;;;;;;5009061;28;20040;-71
2022/10/04 01:50:28;;;;;;;4.60;1.20;;;;;;;;;;5009275;28;20054;-71
2022/10/04 01:53:00;;;;;;;7.03;1.20;;;;;;;;;;5027487;28;20431;-71
2022/10/04 01:55:33;;;;;;;5.85;1.67;;;;;;;;;;5028012;28;20429;-71
2022/10/04 01:58:08;;;;;;;6.03;1.85;;;;;;;;;;5009469;28;20446;-71
2022/10/04 02:00:36;;;;;;;8.32;1.50;;;;;;;;;;4992582;28;20386;-71
2022/10/04 02:03:09;;;;;;;5.30;1.42;;;;;;;;;;5029467;28;20422;-72
2022/10/04 02:05:41;;;;;;;4.85;1.48;;;;;;;;;;5009515;28;20404;-71
2022/10/04 02:08:10;;;;;;;5.43;1.38;;;;;;;;;;5009076;28;20346;-71
2022/10/04 02:10:37;;;;;;;6.28;1.52;;;;;;;;;;5009770;28;20462;-71
2022/10/04 02:13:06;;;;;;;4.78;1.52;;;;;;;;;;5027206;28;20463;-72
2022/10/04 02:15:34;;;;;;;6.18;1.70;;;;;;;;;;5008939;28;20024;-71
2022/10/04 02:18:00;;;;;;;7.72;1.48;;;;;;;;;;5009167;28;20059;-71
2022/10/04 02:20:27;;;;;;;6.32;1.58;;;;;;;;;;5009361;28;20128;-72
2022/10/04 02:23:01;;;;;;;4.60;1.00;;;;;;;;;;5009102;28;20443;-71
2022/10/04 02:25:27;;;;;;;4.90;1.25;;;;;;;;;;5009783;28;20319;-71
2022/10/04 02:27:53;;;;;;;5.65;2.00;;;;;;;;;;5009216;28;20457;-71
2022/10/04 02:30:18;;;;;;;3.42;1.30;;;;;;;;;;5027701;28;20444;-71
2022/10/04 02:32:56;;;;;;;5.97;1.60;;;;;;;;;;5027024;28;20365;-71
2022/10/04 02:35:23;;;;;;;7.70;1.38;;;;;;;;;;5011351;28;20032;-71
2022/10/04 02:37:54;;;;;;;4.43;1.48;;;;;;;;;;4992020;28;20381;-72
2022/10/04 02:40:23;;;;;;;4.72;1.27;;;;;;;;;;5027009;28;20334;-72
2022/10/04 02:43:24;;;;;;;7.22;1.65;;;;;;;;;;5008820;28;20457;-71
2022/10/04 02:45:52;;;;;;;3.70;1.25;;;;;;;;;;5008885;28;20048;-72
2022/10/04 02:48:32;;;;;;;7.13;1.55;;;;;;;;;;5028337;28;20442;-72
2022/10/04 02:51:19;;;;;;;3.28;1.08;;;;;;;;;;5009692;28;20046;-71
2022/10/04 02:54:11;;;;;;;4.68;1.10;;;;;;;;;;5008773;28;20103;-72
2022/10/04 02:56:36;;;;;;;5.60;1.25;;;;;;;;;;5026997;28;20328;-72
2022/10/04 02:59:04;;;;;;;3.17;1.23;;;;;;;;;;5008693;28;20304;-72
2022/10/04 03:01:52;;;;;;;6.70;1.60;;;;;;;;;;5009191;28;20504;-72
2022/10/04 03:04:22;;;;;;;3.42;1.10;;;;;;;;;;5015840;28;20470;-72
2022/10/04 03:06:48;;;;;;;7.28;1.50;;;;;;;;;;5009401;28;20500;-71
2022/10/04 03:09:14;;;;;;;3.08;1.23;;;;;;;;;;5026701;28;20403;-72
2022/10/04 03:11:40;;;;;;;6.30;1.20;;;;;;;;;;5008572;28;20458;-71
2022/10/04 03:14:12;;;;;;;6.57;1.70;;;;;;;;;;5006613;28;20402;-71
2022/10/04 03:16:41;;;;;;;2.40;1.55;;;;;;;;;;5008846;28;20459;-71
2022/10/04 03:19:07;;;;;;;2.72;1.38;;;;;;;;;;5011771;28;20367;-71
2022/10/04 03:21:33;;;;;;;3.55;1.17;;;;;;;;;;5008769;28;20354;-71
2022/10/04 03:23:59;;;;;;;5.18;1.42;;;;;;;;;;5008649;28;20454;-71
2022/10/04 03:26:45;;;;;;;2.58;1.05;;;;;;;;;;5008979;28;20343;-71
2022/10/04 03:29:12;;;;;;;5.00;1.20;;;;;;;;;;5008813;28;20514;-71
2022/10/04 03:31:43;;;;;;;4.45;1.67;;;;;;;;;;5010646;28;20439;-71
2022/10/04 03:34:16;;;;;;;6.38;1.65;;;;;;;;;;5008554;28;20402;-71
2022/10/04 03:36:43;;;;;;;7.20;1.67;;;;;;;;;;5008774;28;20335;-71
2022/10/04 03:39:10;;;;;;;2.20;1.40;;;;;;;;;;5008320;28;20469;-70
2022/10/04 03:41:39;;;;;;;6.32;1.27;;;;;;;;;;5008599;28;20452;-73
2022/10/04 03:44:07;;;;;;;5.65;2.28;;;;;;;;;;5008862;28;20379;-70
2022/10/04 03:46:32;;;;;;;3.35;1.33;;;;;;;;;;5008747;28;20501;-71
2022/10/04 03:48:58;;;;;;;5.40;1.80;;;;;;;;;;5008308;28;20431;-71
2022/10/04 03:51:25;;;;;;;3.72;1.10;;;;;;;;;;5008452;28;20541;-70
2022/10/04 03:53:55;;;;;;;2.60;1.10;;;;;;;;;;5008188;28;20028;-71
2022/10/04 03:56:24;;;;;;;4.80;1.35;;;;;;;;;;5008092;28;20382;-71
2022/10/04 03:58:50;;;;;;;2.85;1.35;;;;;;;;;;5008016;28;20032;-71
2022/10/04 04:01:50;;;;;;;3.63;1.30;;;;;;;;;;5009718;28;20082;-71
2022/10/04 04:04:21;;;;;;;2.55;1.20;;;;;;;;;;5007973;28;20439;-71
2022/10/04 04:07:07;;;;;;;3.60;1.38;;;;;;;;;;5009458;28;20343;-72
2022/10/04 04:09:44;;;;;;;3.40;1.27;;;;;;;;;;5007860;28;20403;-71
2022/10/04 04:12:18;;;;;;;3.80;1.60;;;;;;;;;;5010086;28;20316;-71
2022/10/04 04:14:47;;;;;;;4.22;1.65;;;;;;;;;;5029789;28;20484;-71
2022/10/04 04:17:17;;;;;;;3.47;0.98;;;;;;;;;;5011126;28;20437;-71
2022/10/04 04:19:43;;;;;;;3.20;1.00;;;;;;;;;;5029345;28;20435;-71
2022/10/04 04:22:14;;;;;;;10.18;1.80;;;;;;;;;;5029597;28;20446;-73
2022/10/04 04:24:41;;;;;;;4.88;1.00;;;;;;;;;;5010334;28;20381;-70
2022/10/04 04:27:08;;;;;;;5.38;1.23;;;;;;;;;;5010936;28;20366;-71
2022/10/04 04:29:49;;;;;;;3.22;1.35;;;;;;;;;;5010733;28;20363;-71
2022/10/04 04:32:17;;;;;;;3.05;1.02;;;;;;;;;;5010670;28;20347;-72
2022/10/04 04:34:56;;;;;;;3.35;1.35;;;;;;;;;;5010777;28;20457;-71
2022/10/04 04:37:22;;;;;;;3.60;1.45;;;;;;;;;;5028630;28;20036;-70
2022/10/04 04:39:53;;;;;;;10.45;1.60;;;;;;;;;;4994123;28;20036;-70
2022/10/04 04:42:26;;;;;;;8.93;1.10;;;;;;;;;;5011071;28;20462;-71
2022/10/04 04:44:51;;;;;;;2.30;1.00;;;;;;;;;;5011274;28;20349;-71
2022/10/04 04:47:43;;;;;;;2.78;1.15;;;;;;;;;;5010336;28;20381;-71
2022/10/04 04:50:14;;;;;;;4.95;1.40;;;;;;;;;;5011609;28;20048;-71
2022/10/04 04:52:42;;;;;;;6.30;1.35;;;;;;;;;;5010941;28;20028;-71
2022/10/04 04:55:17;;;;;;;7.35;1.00;;;;;;;;;;5010960;28;20372;-71
2022/10/04 04:57:43;;;;;;;3.15;1.20;;;;;;;;;;5010528;28;20159;-70
2022/10/04 05:00:17;;;;;;;4.05;1.48;;;;;;;;;;5011782;28;20040;-71
2022/10/04 05:02:50;;;;;;;4.32;1.58;;;;;;;;;;5010752;28;20028;-72
2022/10/04 05:05:21;;;;;;;3.10;1.30;;;;;;;;;;5010957;28;20028;-70
2022/10/04 05:07:47;;;;;;;4.72;1.67;;;;;;;;;;5010503;28;20482;-71
2022/10/04 05:10:31;;;;;;;3.90;1.13;;;;;;;;;;5010688;28;20442;-71
2022/10/04 05:13:00;;;;;;;4.07;1.48;;;;;;;;;;5028152;28;20128;-71
2022/10/04 05:15:27;;;;;;;;;;;;;;;;;;5011437;28;20459;-71
2022/10/04 05:17:52;;;;;;;4.15;1.38;;;;;;;;;;5028467;28;20238;-70
2022/10/04 05:20:18;;;;;;;6.07;1.08;;;;;;;;;;5028754;28;20320;-71
2022/10/04 05:22:46;;;;;;;8.65;1.70;;;;;;;;;;5028312;28;20508;-70
2022/10/04 05:25:18;;;;;;;2.15;0.90;;;;;;;;;;5010961;28;20521;-71
2022/10/04 05:27:44;;;;;;;1.80;1.08;;;;;;;;;;5028229;28;20474;-70
2022/10/04 05:30:35;;;;;;;5.85;1.10;;;;;;;;;;5028559;28;20427;-71
2022/10/04 05:33:05;;;;;;;4.25;1.42;;;;;;;;;;5028303;28;20343;-71
2022/10/04 05:35:41;;;;;;;4.45;1.30;;;;;;;;;;5010163;28;20458;-71
2022/10/04 05:38:08;;;;;;;5.55;1.58;;;;;;;;;;5027978;28;20024;-71
2022/10/04 05:40:43;;;;;;;7.75;1.70;;;;;;;;;;5010073;28;20492;-71
2022/10/04 05:43:27;;;;;;;6.53;1.35;;;;;;;;;;5010008;28;20036;-70
2022/10/04 05:46:24;;;;;;;3.55;1.08;;;;;;;;;;5028609;28;20431;-71
2022/10/04 05:48:55;;;;;;;4.00;1.40;;;;;;;;;;4983259;28;20382;-70
2022/10/04 05:51:26;;;;;;;2.17;1.00;;;;;;;;;;5009401;28;20344;-71
2022/10/04 05:53:53;;;;;;;5.93;1.27;;;;;;;;;;5028093;28;20363;-71
2022/10/04 05:57:07;;;;;;;9.25;1.27;;;;;;;;;;5009996;28;20032;-70
2022/10/04 05:59:38;;;;;;;5.30;1.40;;;;;;;;;;4930156;28;20526;-70
2022/10/04 06:02:54;;;;;;;3.75;1.15;;;;;;;;;;4930381;28;20366;-71
2022/10/04 06:05:41;;;;;;;4.47;1.58;;;;;;;;;;4974517;28;20477;-71
2022/10/04 06:08:18;;;;;;;3.20;1.00;;;;;;;;;;5027753;28;20342;-71
2022/10/04 06:10:58;;;;;;;2.28;1.10;;;;;;;;;;4992788;28;20507;-70
2022/10/04 06:13:50;;;;;;;5.40;1.23;;;;;;;;;;5005932;28;20052;-71
2022/10/04 06:16:31;;;;;;;4.13;1.20;;;;;;;;;;5006224;28;20082;-70
2022/10/04 06:19:21;;;;;;;12.77;1.73;;;;;;;;;;5008283;28;20328;-70
2022/10/04 06:21:50;;;;;;;8.63;1.45;;;;;;;;;;5008636;28;20032;-71
2022/10/04 06:24:20;;;;;;;9.23;1.75;;;;;;;;;;5008150;28;20029;-70
2022/10/04 06:26:48;;;;;;;2.30;1.48;;;;;;;;;;5006413;28;20047;-70
2022/10/04 06:29:17;;;;;;;2.63;1.23;;;;;;;;;;5009040;28;20514;-70
2022/10/04 06:32:33;;;;;;;4.82;1.88;;;;;;;;;;5006467;28;20459;-70
2022/10/04 06:35:05;;;;;;;11.15;1.88;;;;;;;;;;4973833;28;20355;-70
2022/10/04 06:37:55;;;;;;;6.40;1.50;;;;;;;;;;5007498;28;20029;-71
2022/10/04 06:40:44;;;;;;;3.40;1.15;;;;;;;;;;5006761;28;20459;-69
2022/10/04 06:43:40;;;;;;;6.40;1.35;;;;;;;;;;4998928;28;20466;-70
2022/10/04 06:46:41;;;;;;;4.13;1.65;;;;;;;;;;5007624;28;20059;-71
2022/10/04 06:49:53;;;;;;;3.97;1.38;;;;;;;;;;4975755;28;20528;-70
2022/10/04 06:52:26;;;;;;;5.10;1.67;;;;;;;;;;5010057;28;20536;-70
2022/10/04 06:55:17;;;;;;;8.20;1.45;;;;;;;;;;5010353;28;20371;-70
2022/10/04 06:58:08;;;;;;;5.55;2.00;;;;;;;;;;5011085;28;20467;-70
2022/10/04 07:00:52;;;;;;;5.53;1.42;;;;;;;;;;5009974;28;20400;-70
2022/10/04 07:03:27;;;;;;;2.97;1.20;;;;;;;;;;5011180;28;20382;-70
2022/10/04 07:06:03;;;;;;;7.18;1.40;;;;;;;;;;5011225;28;20478;-69
2022/10/04 07:08:37;;;;;;;4.10;1.58;;;;;;;;;;5010919;28;20351;-71
2022/10/04 07:11:25;;;;;;;2.45;1.40;;;;;;;;;;5010964;28;20505;-70
2022/10/04 07:13:56;;;;;;;5.90;1.40;;;;;;;;;;4677101;28;9999952;-71
2022/10/04 07:16:24;;;;;;;4.25;1.52;;;;;;;;;;5032196;28;20523;-70
2022/10/04 07:19:02;;;;;;;4.78;1.30;;;;;;;;;;5031949;28;20428;-70
2022/10/04 07:21:35;;;;;;;4.95;1.30;;;;;;;;;;5031393;28;20446;-69
2022/10/04 07:24:02;;;;;;;9.48;1.98;;;;;;;;;;5030746;28;20370;-69
2022/10/04 07:26:33;;;;;;;4.43;1.20;;;;;;;;;;5030912;28;20358;-70
2022/10/04 07:29:20;;;;;;;5.60;1.58;;;;;;;;;;5012526;28;20063;-69
2022/10/04 07:32:07;;;;;;;3.05;1.38;;;;;;;;;;5014982;28;20051;-69
2022/10/04 07:34:38;;;;;;;5.68;1.85;;;;;;;;;;5012741;28;20408;-69
2022/10/04 07:37:12;;;;;;;3.72;1.83;;;;;;;;;;5012270;28;20458;-70
2022/10/04 07:39:49;;;;;;;5.35;1.35;;;;;;;;;;5012860;28;20111;-69
2022/10/04 07:42:19;;;;;;;9.10;2.00;;;;;;;;;;5030210;28;20446;-70
2022/10/04 07:44:53;;;;;;;3.75;1.50;;;;;;;;;;5030398;28;20032;-69
2022/10/04 07:47:26;;;;;;;5.20;1.63;;;;;;;;;;5030628;28;20457;-68
2022/10/04 07:49:53;;;;;;;7.60;1.80;;;;;;;;;;5030474;28;20328;-69
2022/10/04 07:52:35;;;;;;;2.72;1.10;;;;;;;;;;5030284;28;20343;-68
2022/10/04 07:55:16;;;;;;;9.45;1.98;;;;;;;;;;5012860;28;20460;-69
2022/10/04 07:58:06;;;;;;;3.78;1.20;;;;;;;;;;5011941;28;20435;-70
2022/10/04 08:01:01;;;;;;;5.45;1.25;;;;;;;;;;5029790;28;20139;-69
2022/10/04 08:03:58;;;;;;;2.85;1.38;;;;;;;;;;4994068;28;20483;-69
2022/10/04 08:06:29;;;;;;;6.40;2.33;;;;;;;;;;5030835;28;20032;-71
2022/10/04 08:09:24;;;;;;;7.32;1.48;;;;;;;;;;5031117;28;20381;-69
2022/10/04 08:12:06;;;;;;;4.13;1.23;;;;;;;;;;5030003;28;20390;-69
2022/10/04 08:14:53;;;;;;;3.80;1.23;;;;;;;;;;5029226;28;20463;-69
2022/10/04 08:17:35;;;;;;;10.18;1.85;;;;;;;;;;5011503;28;20024;-70
2022/10/04 08:20:22;;;;;;;6.30;1.30;;;;;;;;;;5011250;28;20082;-69
2022/10/04 08:23:08;;;;;;;5.35;1.60;;;;;;;;;;5029973;28;20443;-69
2022/10/04 08:25:45;;;;;;;8.77;2.08;;;;;;;;;;5030058;28;20320;-69
2022/10/04 08:31:31;;;;;;;3.13;1.33;;;;;;;;;;5029622;28;20374;-69
2022/10/04 08:34:11;;;;;;;5.22;1.63;;;;;;;;;;5010915;28;20468;-69
2022/10/04 08:36:49;;;;;;;4.75;1.55;;;;;;;;;;5011562;28;20320;-69
2022/10/04 08:39:24;;;;;;;2.65;1.48;;;;;;;;;;5029323;28;20450;-68
2022/10/04 08:42:16;;;;;;;2.83;1.17;;;;;;;;;;5010982;28;20035;-69
2022/10/04 08:45:26;;;;;;;8.85;1.48;;;;;;;;;;5030624;28;20405;-68
2022/10/04 08:48:18;;;;;;;4.60;1.42;;;;;;;;;;5025033;28;20067;-68
2022/10/04 08:51:17;;;;;;;3.78;1.35;;;;;;;;;;5011840;28;20350;-68
2022/10/04 08:54:00;;;;;;;4.22;1.40;;;;;;;;;;5028910;28;20508;-68
2022/10/04 08:56:35;;;;;;;3.50;1.42;;;;;;;;;;5010811;28;20406;-68
2022/10/04 08:59:22;;;;;;;5.20;1.60;;;;;;;;;;5029288;28;20319;-68
2022/10/04 09:02:11;;;;;;;4.75;1.45;;;;;;;;;;5029627;28;20458;-68
2022/10/04 09:04:55;;;;;;;3.63;1.42;;;;;;;;;;5011016;28;20028;-68
2022/10/04 09:07:58;;;;;;;7.05;1.50;;;;;;;;;;5028553;28;20450;-69
2022/10/04 09:10:45;;;;;;;8.68;1.50;;;;;;;;;;5028974;28;20457;-69
2022/10/04 09:13:32;;;;;;;8.70;1.27;;;;;;;;;;5028249;28;20064;-68
2022/10/04 09:16:15;;;;;;;12.13;1.70;;;;;;;;;;5010449;28;20028;-69
2022/10/04 09:18:51;;;;;;;6.82;1.33;;;;;;;;;;5028436;28;20441;-69
2022/10/04 09:21:34;;;;;;;7.60;1.52;;;;;;;;;;5028535;28;20451;-69
2022/10/04 09:24:06;;;;;;;4.88;1.73;;;;;;;;;;5028598;28;20404;-68
2022/10/04 09:26:45;;;;;;;4.90;1.77;;;;;;;;;;5028817;28;20304;-68
2022/10/04 09:29:48;;;;;;;4.35;1.35;;;;;;;;;;5010086;28;20471;-68
2022/10/04 09:32:24;;;;;;;3.78;1.27;;;;;;;;;;4946883;28;20483;-68
2022/10/04 09:35:23;;;;;;;7.05;1.75;;;;;;;;;;4998913;28;20482;-69
2022/10/04 09:37:48;;;;;;;;;;;;;;;;;;5010630;28;21528;-68
2022/10/04 09:40:35;;;;;;;2.55;1.02;;;;;;;;;;5028240;28;20243;-68
2022/10/04 09:43:39;;;;;;;7.90;1.67;;;;;;;;;;5027915;28;20032;-68
2022/10/04 09:46:07;;;;;;;1.48;0.85;;;;;;;;;;5030009;28;20335;-68
2022/10/04 09:48:32;;;;;;;3.38;1.30;;;;;;;;;;5009837;28;20584;-68
2022/10/04 09:51:17;;;;;;;4.38;1.13;;;;;;;;;;5028115;28;20588;-68
2022/10/04 09:54:12;;;;;;;1.58;0.95;;;;;;;;;;5009804;28;20046;-68
2022/10/04 09:57:00;;;;;;;4.03;1.63;;;;;;;;;;4993377;28;20527;-68
2022/10/04 09:59:37;;;;;;;4.07;1.30;;;;;;;;;;5028022;28;20398;-68
2022/10/04 10:02:29;;;;;;;4.32;1.40;;;;;;;;;;5027936;28;20439;-69
2022/10/04 10:05:14;;;;;;;4.22;1.10;;;;;;;;;;5028122;28;20036;-69
2022/10/04 10:07:45;;;;;;;6.07;1.30;;;;;;;;;;5027634;28;20454;-68
2022/10/04 10:13:39;;;;;;;3.67;1.60;;;;;;;;;;5027112;28;20079;-68
2022/10/04 10:16:17;;;;;;;5.40;1.45;;;;;;;;;;5028695;28;20458;-68
2022/10/04 10:19:02;;;;;;;3.22;1.15;;;;;;;;;;5028419;28;20340;-68
2022/10/04 10:21:56;;;;;;;7.10;1.80;;;;;;;;;;5027962;28;20489;-68
2022/10/04 10:24:45;;;;;;;7.07;2.50;;;;;;;;;;4954724;28;20045;-68
2022/10/04 10:27:23;;;;;;;5.35;2.28;;;;;;;;;;5029064;28;20530;-68
2022/10/04 10:30:11;;;;;;;3.72;1.92;;;;;;;;;;5009663;28;20412;-68
2022/10/04 10:33:14;;;;;;;4.97;1.00;;;;;;;;;;5009740;28;20453;-68
2022/10/04 10:35:51;;;;;;;3.40;0.98;;;;;;;;;;5028118;28;20047;-68
2022/10/04 10:38:47;;;;;;;2.13;0.90;;;;;;;;;;5028557;28;20035;-68
2022/10/04 10:41:31;;;;;;;2.58;1.25;;;;;;;;;;5027585;28;20051;-68
2022/10/04 10:44:11;;;;;;;2.30;1.00;;;;;;;;;;5027154;28;20036;-68
2022/10/04 10:46:48;;;;;;;2.30;1.02;;;;;;;;;;5009080;28;20119;-68
2022/10/04 10:49:25;;;;;;;3.47;1.10;;;;;;;;;;5027546;28;20474;-68
2022/10/04 10:52:29;;;;;;;2.17;1.10;;;;;;;;;;5010251;28;20473;-68
2022/10/04 10:54:54;;;;;;;5.40;1.13;;;;;;;;;;5027359;28;20363;-68
2022/10/04 10:57:48;;;;;;;4.68;1.08;;;;;;;;;;5027147;28;20410;-68
2022/10/04 11:00:19;;;;;;;2.50;0.75;;;;;;;;;;5009207;28;20055;-68
2022/10/04 11:03:04;;;;;;;5.20;1.30;;;;;;;;;;5009042;28;20500;-68
2022/10/04 11:06:02;;;;;;;2.50;0.80;;;;;;;;;;5027389;28;20344;-68
2022/10/04 11:08:30;;;;;;;1.98;0.75;;;;;;;;;;5008931;28;20470;-68
2022/10/04 11:11:17;;;;;;;1.73;0.93;;;;;;;;;;5027024;28;20354;-68
2022/10/04 11:14:15;;;;;;;1.98;0.88;;;;;;;;;;5027324;28;20443;-67
2022/10/04 11:17:28;;;;;;;2.50;1.13;;;;;;;;;;5027086;28;20489;-68
2022/10/04 11:20:07;;;;;;;2.38;0.90;;;;;;;;;;5020110;28;20044;-68
2022/10/04 11:22:58;;;;;;;2.25;0.95;;;;;;;;;;5027026;28;20454;-68
2022/10/04 11:25:52;;;;;;;7.18;1.00;;;;;;;;;;5028246;28;20470;-68
2022/10/04 11:28:28;;;;;;;3.40;0.88;;;;;;;;;;5027016;28;20439;-68
2022/10/04 11:31:18;;;;;;;0.65;0.50;;;;;;;;;;5027359;28;20450;-67
2022/10/04 11:33:58;;;;;;;3.33;0.98;;;;;;;;;;5028026;28;20442;-67
2022/10/04 11:36:32;;;;;;;2.72;1.10;;;;;;;;;;5030525;28;20351;-68
2022/10/04 11:39:06;;;;;;;1.42;0.60;;;;;;;;;;5012447;28;20485;-68
2022/10/04 11:41:41;;;;;;;2.35;0.73;;;;;;;;;;5030737;28;20486;-68
2022/10/04 11:44:34;;;;;;;1.42;0.82;;;;;;;;;;5030590;28;20366;-68
2022/10/04 11:47:02;;;;;;;2.75;0.90;;;;;;;;;;5030264;28;20036;-68
2022/10/04 11:49:59;;;;;;;3.33;0.90;;;;;;;;;;5015650;28;20407;-67
2022/10/04 11:52:43;;;;;;;3.35;0.63;;;;;;;;;;5030782;28;20358;-67
2022/10/04 11:55:23;;;;;;;2.40;0.77;;;;;;;;;;5031610;28;20336;-68
2022/10/04 11:57:58;;;;;;;1.92;0.73;;;;;;;;;;5030083;28;20449;-67
2022/10/04 12:00:26;;;;;;;4.00;0.68;;;;;;;;;;5030404;28;20050;-68
2022/10/04 12:03:30;;;;;;;1.27;0.65;;;;;;;;;;5030097;28;20089;-67
2022/10/04 12:06:26;;;;;;;1.52;0.70;;;;;;;;;;5012077;28;20431;-68
2022/10/04 12:09:30;;;;;;;1.55;0.80;;;;;;;;;;5029521;28;20399;-68
2022/10/04 12:12:36;;;;;;;3.63;0.98;;;;;;;;;;2323140;28;10001989;-67
2022/10/04 12:15:48;;;;;;;1.42;0.60;;;;;;;;;;4988260;28;20456;-68
2022/10/04 12:18:34;;;;;;;1.35;0.95;;;;;;;;;;4990017;28;20161;-67
2022/10/04 12:21:18;;;;;;;1.50;0.80;;;;;;;;;;4991128;28;20051;-67
2022/10/04 12:24:05;;;;;;;2.00;0.65;;;;;;;;;;4989911;28;20436;-67
2022/10/04 12:27:07;;;;;;;0.95;0.47;;;;;;;;;;4989874;28;20024;-68
2022/10/04 12:29:59;;;;;;;0.70;0.50;;;;;;;;;;4990102;28;20122;-67
2022/10/04 12:32:31;;;;;;;1.55;0.70;;;;;;;;;;4988082;28;20032;-67
2022/10/04 12:35:08;;;;;;;1.95;0.60;;;;;;;;;;4990189;28;20416;-68
2022/10/04 12:37:52;;;;;;;1.80;0.70;;;;;;;;;;4991534;28;20344;-67
2022/10/04 12:40:32;;;;;;;1.25;0.63;;;;;;;;;;4989537;28;20033;-67
2022/10/04 12:43:05;;;;;;;3.47;0.70;;;;;;;;;;4988474;28;20032;-67
2022/10/04 12:45:40;;;;;;;2.33;0.95;;;;;;;;;;4989107;28;20373;-67
2022/10/04 12:48:20;;;;;;;2.33;0.80;;;;;;;;;;4989031;28;20394;-67
2022/10/04 12:51:08;;;;;;;1.63;0.70;;;;;;;;;;4989541;28;20428;-67
2022/10/04 12:53:36;;;;;;;3.13;0.93;;;;;;;;;;4989360;28;20451;-67
2022/10/04 12:56:01;;;;;;;2.00;0.68;;;;;;;;;;4989373;28;20348;-67
2022/10/04 12:58:39;;;;;;;0.98;0.50;;;;;;;;;;4989395;28;20343;-67
2022/10/04 13:01:30;;;;;;;3.08;0.88;;;;;;;;;;4987437;28;20340;-68
2022/10/04 13:04:23;;;;;;;1.52;0.73;;;;;;;;;;4986088;28;20127;-68
2022/10/04 13:07:09;;;;;;;1.92;0.50;;;;;;;;;;4961444;28;20356;-67
2022/10/04 13:09:56;;;;;;;1.48;0.55;;;;;;;;;;4987849;28;20371;-68
2022/10/04 13:12:40;;;;;;;1.65;0.88;;;;;;;;;;4988269;28;20325;-67
2022/10/04 13:15:28;;;;;;;2.85;1.13;;;;;;;;;;5010440;28;20055;-67
2022/10/04 13:18:22;;;;;;;1.13;0.63;;;;;;;;;;5028963;28;20370;-67
2022/10/04 13:21:30;;;;;;;2.97;1.10;;;;;;;;;;4976408;28;20595;-68
2022/10/04 13:24:04;;;;;;;0.55;0.43;;;;;;;;;;5000880;28;20455;-67
2022/10/04 13:26:56;;;;;;;1.02;0.50;;;;;;;;;;5028538;28;20055;-67
2022/10/04 13:29:31;;;;;;;0.85;0.70;;;;;;;;;;5010651;28;20422;-67
2022/10/04 13:32:06;;;;;;;1.23;0.47;;;;;;;;;;5028212;28;20424;-67
2022/10/04 13:34:56;;;;;;;2.10;0.70;;;;;;;;;;5010128;28;20024;-67
2022/10/04 13:37:41;;;;;;;1.20;0.60;;;;;;;;;;5028363;28;20114;-68
2022/10/04 13:40:25;;;;;;;1.75;0.93;;;;;;;;;;5010347;28;20388;-68
2022/10/04 13:43:13;;;;;;;3.95;1.45;;;;;;;;;;5028391;28;20404;-68
2022/10/04 13:45:57;;;;;;;2.67;0.65;;;;;;;;;;5029008;28;20034;-67
2022/10/04 13:48:48;;;;;;;1.88;0.80;;;;;;;;;;5028156;28;20457;-68
2022/10/04 13:51:31;;;;;;;3.45;0.80;;;;;;;;;;5028103;28;20058;-67
2022/10/04 13:57:12;;;;;;;1.75;0.68;;;;;;;;;;5028672;28;20450;-68
2022/10/04 14:00:04;;;;;;;1.87;0.67;;;;;;;;;;5009817;28;20512;-67
2022/10/04 14:02:52;;;;;;;2.47;0.80;;;;;;;;;;5028988;28;20339;-67
2022/10/04 14:05:39;;;;;;;3.03;0.73;;;;;;;;;;5009860;28;20471;-68
2022/10/04 14:08:20;;;;;;;0.70;0.47;;;;;;;;;;5027915;28;20054;-67
2022/10/04 14:11:00;;;;;;;1.23;0.73;;;;;;;;;;5010012;28;20434;-67
2022/10/04 14:13:39;;;;;;;2.05;0.60;;;;;;;;;;5027235;28;20474;-67
2022/10/04 14:16:11;;;;;;;2.25;0.70;;;;;;;;;;5027603;28;20547;-67
2022/10/04 14:18:40;;;;;;;1.85;0.80;;;;;;;;;;5027667;28;20393;-67
2022/10/04 14:21:24;;;;;;;2.05;0.80;;;;;;;;;;5027758;28;20411;-67
2022/10/04 14:24:25;;;;;;;3.30;1.20;;;;;;;;;;5027570;28;20470;-68
2022/10/04 14:27:21;;;;;;;2.15;0.70;;;;;;;;;;4989389;28;20423;-67
2022/10/04 14:29:46;;;;;;;0.85;0.60;;;;;;;;;;5010037;28;20370;-67
2022/10/04 14:32:41;;;;;;;1.88;0.70;;;;;;;;;;5027346;28;20340;-67
2022/10/04 14:35:26;;;;;;;1.73;0.60;;;;;;;;;;5025074;28;20451;-67
2022/10/04 14:38:09;;;;;;;1.70;0.70;;;;;;;;;;5009141;28;20515;-67
2022/10/04 14:40:55;;;;;;;1.65;0.70;;;;;;;;;;5009462;28;20461;-67
2022/10/04 14:43:46;;;;;;;4.85;0.90;;;;;;;;;;5027518;28;20443;-68
2022/10/04 14:46:30;;;;;;;1.27;0.65;;;;;;;;;;5009601;28;20354;-67
2022/10/04 14:49:01;;;;;;;0.93;0.60;;;;;;;;;;5027253;28;20354;-67
2022/10/04 14:51:38;;;;;;;1.40;0.50;;;;;;;;;;5027863;28;20304;-67
2022/10/04 14:54:15;;;;;;;0.93;0.60;;;;;;;;;;5027337;28;20354;-67
2022/10/04 14:57:08;;;;;;;0.85;0.50;;;;;;;;;;5008945;28;20081;-67
2022/10/04 14:59:36;;;;;;;1.27;0.57;;;;;;;;;;5027370;28;20331;-67
2022/10/04 15:02:30;;;;;;;2.65;0.70;;;;;;;;;;5027399;28;20473;-67
2022/10/04 15:05:18;;;;;;;0.95;0.52;;;;;;;;;;5027482;28;20028;-67
2022/10/04 15:07:48;;;;;;;1.37;0.90;;;;;;;;;;5027156;28;20496;-67
2022/10/04 15:10:30;;;;;;;1.40;0.80;;;;;;;;;;5011558;28;20028;-67
2022/10/04 15:13:01;;;;;;;3.00;0.77;;;;;;;;;;5009570;28;20490;-67
2022/10/04 15:15:45;;;;;;;3.33;0.90;;;;;;;;;;5009497;28;20300;-67
2022/10/04 15:18:20;;;;;;;1.48;0.60;;;;;;;;;;5010601;28;20339;-67
2022/10/04 15:20:54;;;;;;;1.60;0.63;;;;;;;;;;5009720;28;20343;-67
2022/10/04 15:23:36;;;;;;;1.13;0.73;;;;;;;;;;5009617;28;20320;-67
2022/10/04 15:26:27;;;;;;;1.60;0.98;;;;;;;;;;5009365;28;20431;-67
2022/10/04 15:29:01;;;;;;;2.90;0.93;;;;;;;;;;5010701;28;20378;-69
2022/10/04 15:31:33;;;;;;;2.03;0.70;;;;;;;;;;5009027;28;20506;-67
2022/10/04 15:34:05;;;;;;;1.45;0.88;;;;;;;;;;5010599;28;20441;-67
2022/10/04 15:36:43;;;;;;;1.52;0.70;;;;;;;;;;5010540;28;20505;-67
2022/10/04 15:39:30;;;;;;;1.70;0.80;;;;;;;;;;5009875;28;20103;-67
2022/10/04 15:41:59;;;;;;;0.93;0.45;;;;;;;;;;5010387;28;20463;-67
2022/10/04 15:45:01;;;;;;;0.90;0.70;;;;;;;;;;4674681;28;10001892;-67
2022/10/04 15:47:52;;;;;;;3.08;1.25;;;;;;;;;;5010921;28;20451;-67
2022/10/04 15:50:30;;;;;;;2.63;0.68;;;;;;;;;;4995421;28;20440;-67
2022/10/04 15:53:11;;;;;;;1.53;0.67;;;;;;;;;;5009813;28;20530;-67
2022/10/04 15:56:14;;;;;;;2.35;0.75;;;;;;;;;;5010484;28;20429;-67
2022/10/04 15:58:58;;;;;;;1.15;0.70;;;;;;;;;;5010093;28;20347;-67
2022/10/04 16:01:27;;;;;;;1.25;0.80;;;;;;;;;;5008921;28;20458;-67
2022/10/04 16:04:10;;;;;;;1.77;0.80;;;;;;;;;;5010069;28;20459;-67
2022/10/04 16:06:49;;;;;;;2.00;1.00;;;;;;;;;;5010217;28;20036;-67